Time;durP1;ratioP1;P1;durP2;ratioP2;P2;SDS_P1;SDS_P2;PMS_P1;PMS_P2;Temp;Humidity;BMP_temperature;BMP_pressure;BME280_temperature;BME280_humidity;BME280_pressure;Samples;Min_cycle;Max_cycle;Signal;HPM_P1;HPM_P2
2022/06/21 00:00:49;;;;;;;12.48;4.13;;;;;;;-146.64;100.00;87259.13;5064528;28;20052;-74
2022/06/21 00:03:16;;;;;;;;;;;;;;;-146.64;100.00;87789.44;5078576;28;20032;-75
2022/06/21 00:05:45;;;;;;;11.63;4.03;;;;;;;-146.64;100.00;88585.03;5076331;28;19955;-74
2022/06/21 00:08:14;;;;;;;20.17;4.25;;;;;;;-146.64;100.00;90972.78;5053952;28;20025;-75
2022/06/21 00:10:39;;;;;;;18.80;4.20;;;;;;;-146.64;100.00;91503.59;5060201;28;20020;-75
2022/06/21 00:13:15;;;;;;;18.43;4.37;;;;;;;-146.64;100.00;89911.41;5072104;28;20050;-73
2022/06/21 00:15:42;;;;;;;13.23;3.83;;;;;;;-146.64;100.00;92034.47;5057033;28;20181;-74
2022/06/21 00:18:16;;;;;;;20.88;4.60;;;;;;;-146.64;100.00;92565.41;5065546;28;20047;-75
2022/06/21 00:20:41;;;;;;;14.68;4.10;;;;;;;-146.64;100.00;93096.44;5067385;28;20051;-74
2022/06/21 00:23:16;;;;;;;14.47;4.10;;;;;;;-146.64;100.00;91769.03;5060655;28;20029;-75
2022/06/21 00:25:42;;;;;;;12.95;4.80;;;;;;;-146.64;100.00;93627.50;5069046;28;20067;-75
2022/06/21 00:28:07;;;;;;;13.87;3.93;;;;;;;-146.64;100.00;93893.06;5055312;28;20059;-75
2022/06/21 00:30:33;;;;;;;19.07;4.90;;;;;;;-146.64;100.00;94955.53;5064778;28;20028;-75
2022/06/21 00:32:58;;;;;;;14.13;4.30;;;;;;;-146.64;100.00;93893.06;5071982;28;20058;-72
2022/06/21 00:35:25;;;;;;;12.87;4.43;;;;;;;-146.64;100.00;97347.03;5068255;28;20039;-72
2022/06/21 00:37:51;;;;;;;11.38;4.00;;;;;;;-146.64;100.00;95486.84;5054946;28;20028;-72
2022/06/21 00:40:17;;;;;;;;;;;;;;;-146.64;100.00;97612.84;5066025;28;20032;-72
2022/06/21 00:42:43;;;;;;;12.35;3.58;;;;;;;-146.64;100.00;96283.97;5090936;28;20455;-72
2022/06/21 00:45:16;;;;;;;13.93;4.45;;;;;;;-146.64;100.00;98410.41;5050386;28;20052;-72
2022/06/21 00:47:50;;;;;;;14.57;4.47;;;;;;;-146.64;100.00;95752.53;5053604;28;20028;-72
2022/06/21 00:50:27;;;;;;;14.13;5.00;;;;;;;-146.64;100.00;98942.19;5069806;28;20204;-72
2022/06/21 00:52:59;;;;;;;14.23;4.65;;;;;;;-146.64;100.00;97612.84;5051880;28;20020;-72
2022/06/21 00:55:33;;;;;;;9.18;4.07;;;;;;;-146.64;100.00;97612.84;5087772;28;20428;-72
2022/06/21 00:57:58;;;;;;;10.10;4.25;;;;;;;-146.64;100.00;98144.53;5071519;28;20024;-72
2022/06/21 01:00:32;;;;;;;14.70;4.67;;;;;;;-146.64;100.00;101868.22;5061683;28;20051;-75
2022/06/21 01:03:01;;;;;;;16.30;5.20;;;;;;;-146.64;100.00;101070.00;5061240;28;20028;-75
2022/06/21 01:05:30;;;;;;;11.32;3.67;;;;;;;-146.64;100.00;99474.03;5074246;28;20039;-75
2022/06/21 01:07:56;;;;;;;13.65;4.28;;;;;;;-146.64;100.00;102932.75;5066778;28;20021;-75
2022/06/21 01:10:23;;;;;;;19.73;4.70;;;;;;;-146.64;100.00;103731.34;5068790;28;20059;-75
2022/06/21 01:12:52;;;;;;;17.42;5.45;;;;;;;-146.64;100.00;104263.81;5069438;28;20040;-75
2022/06/21 01:15:24;;;;;;;17.67;5.72;;;;;;;-146.64;100.00;105329.00;5078909;28;20107;-76
2022/06/21 01:17:54;;;;;;;14.38;5.95;;;;;;;-146.64;100.00;104796.38;5066932;28;20475;-75
2022/06/21 01:20:23;;;;;;;17.65;6.55;;;;;;;-146.64;100.00;104530.09;5060696;23;20050;-78
2022/06/21 01:23:02;;;;;;;18.38;6.38;;;;;;;-146.64;100.00;105595.31;5022890;28;20129;-78
2022/06/21 01:25:38;;;;;;;13.68;4.88;;;;;;;-146.64;100.00;104530.09;5021460;28;20047;-78
2022/06/21 01:28:04;;;;;;;12.23;4.97;;;;;;;-146.64;100.00;104263.81;5041815;28;20026;-78
2022/06/21 01:30:29;;;;;;;15.95;6.32;;;;;;;-146.64;100.00;105329.00;5010193;28;20025;-78
2022/06/21 01:32:58;;;;;;;17.13;4.87;;;;;;;-146.64;100.00;106394.44;5026458;28;20041;-78
2022/06/21 01:35:44;;;;;;;12.52;5.40;;;;;;;-146.64;100.00;107993.13;5008391;28;20034;-78
2022/06/21 01:38:15;;;;;;;14.85;6.00;;;;;;;-146.64;100.00;108792.72;5016554;28;20054;-78
2022/06/21 01:40:43;;;;;;;12.57;6.00;;;;;;;-146.64;100.00;107993.13;5014037;28;20061;-78
2022/06/21 01:43:15;;;;;;;17.50;6.55;;;;;;;-146.64;100.00;107993.13;5030775;28;20085;-78
2022/06/21 01:45:44;;;;;;;14.18;5.70;;;;;;;-146.64;100.00;109059.28;5011524;28;20429;-78
2022/06/21 01:48:19;;;;;;;16.52;6.43;;;;;;;-146.64;100.00;109592.44;5030669;28;20105;-78
2022/06/21 01:50:45;;;;;;;18.08;6.85;;;;;;;-146.64;100.00;110125.69;5026514;28;20068;-78
2022/06/21 01:53:12;;;;;;;15.93;6.80;;;;;;;-146.64;100.00;109592.44;5012333;28;20046;-78
2022/06/21 01:55:46;;;;;;;15.63;5.90;;;;;;;-146.64;100.00;110125.69;5014029;28;20029;-77
2022/06/21 01:58:15;;;;;;;18.80;7.32;;;;;;;-146.64;100.00;109325.84;5032469;28;20025;-78
2022/06/21 02:00:44;;;;;;;20.25;7.32;;;;;;;-146.64;100.00;110925.69;5030100;28;20209;-78
2022/06/21 02:03:15;;;;;;;16.10;6.20;;;;;;;-146.64;100.00;111192.41;5016634;28;20037;-78
2022/06/21 02:05:44;;;;;;;16.33;6.95;;;;;;;-146.64;100.00;110659.00;5030338;28;20041;-78
2022/06/21 02:08:15;;;;;;;16.20;6.53;;;;;;;-146.64;100.00;109859.06;5012645;28;20562;-78
2022/06/21 02:10:43;;;;;;;14.52;7.88;;;;;;;-146.64;100.00;111725.84;5016971;28;20047;-77
2022/06/21 02:13:14;;;;;;;13.75;6.43;;;;;;;-146.64;100.00;111725.84;5031861;28;20117;-78
2022/06/21 02:15:47;;;;;;;15.82;5.57;;;;;;;-146.64;100.00;109859.06;5026438;28;20021;-78
2022/06/21 02:18:14;;;;;;;17.83;6.78;;;;;;;-146.64;100.00;111192.41;5009918;28;20072;-77
2022/06/21 02:20:48;;;;;;;;;;;;;;;-146.64;100.00;111992.59;5030705;28;20058;-77
2022/06/21 02:23:15;;;;;;;15.13;6.22;;;;;;;-146.64;100.00;111459.13;5023848;28;19976;-78
2022/06/21 02:25:41;;;;;;;17.10;6.30;;;;;;;-146.64;100.00;113059.81;5012051;28;20022;-77
2022/06/21 02:28:09;;;;;;;14.45;7.00;;;;;;;-146.64;100.00;113059.81;5012560;28;20048;-78
2022/06/21 02:30:36;;;;;;;15.90;6.60;;;;;;;-146.64;100.00;112526.16;5029705;28;20069;-78
2022/06/21 02:33:03;;;;;;;20.35;6.40;;;;;;;-146.64;100.00;112526.16;5028118;28;20018;-79
2022/06/21 02:35:50;;;;;;;15.50;7.53;;;;;;;-146.64;100.00;113059.81;5023341;28;20074;-78
2022/06/21 02:38:19;;;;;;;16.90;6.80;;;;;;;-146.64;100.00;113860.38;5022525;28;20022;-78
2022/06/21 02:40:48;;;;;;;20.33;7.00;;;;;;;-146.64;100.00;114127.28;5027848;28;20035;-78
2022/06/21 02:43:30;;;;;;;13.68;7.00;;;;;;;-146.64;100.00;114394.19;5008945;28;20037;-78
2022/06/21 02:46:08;;;;;;;15.02;6.45;;;;;;;-146.64;100.00;114127.28;5028321;28;20081;-78
2022/06/21 02:48:36;;;;;;;15.55;7.18;;;;;;;-146.64;100.00;114661.13;5029512;28;20036;-77
2022/06/21 02:51:05;;;;;;;21.58;6.90;;;;;;;-146.64;100.00;114127.28;5030672;28;20030;-78
2022/06/21 02:53:35;;;;;;;21.42;7.00;;;;;;;-146.64;100.00;114127.28;4997886;28;20036;-78
2022/06/21 02:56:10;;;;;;;19.58;6.88;;;;;;;-146.64;100.00;113593.50;5010497;28;20014;-78
2022/06/21 02:58:39;;;;;;;18.85;7.65;;;;;;;-146.64;100.00;113593.50;5014507;28;20045;-78
2022/06/21 03:01:12;;;;;;;15.13;6.10;;;;;;;-146.64;100.00;113059.81;5030567;28;20088;-78
2022/06/21 03:03:37;;;;;;;18.80;6.78;;;;;;;-146.64;100.00;113593.50;5013744;28;20026;-77
2022/06/21 03:06:06;;;;;;;14.13;7.37;;;;;;;-146.64;100.00;113059.81;5022286;28;20056;-78
2022/06/21 03:08:32;;;;;;;14.32;6.90;;;;;;;-146.64;100.00;114127.28;5029766;28;20038;-78
2022/06/21 03:10:58;;;;;;;12.57;6.43;;;;;;;-146.64;100.00;113593.50;5015150;28;20093;-78
2022/06/21 03:13:42;;;;;;;13.45;6.45;;;;;;;-146.64;100.00;113593.50;5015755;28;20049;-78
2022/06/21 03:16:12;;;;;;;14.52;6.45;;;;;;;-146.64;100.00;114127.28;5005563;28;20029;-78
2022/06/21 03:18:48;;;;;;;16.85;6.88;;;;;;;-146.64;100.00;114928.06;5017533;28;20027;-78
2022/06/21 03:21:14;;;;;;;16.33;6.85;;;;;;;-146.64;100.00;114928.06;5026152;28;20029;-78
2022/06/21 03:23:44;;;;;;;20.13;6.28;;;;;;;-146.64;100.00;115195.03;5028180;28;20102;-77
2022/06/21 03:26:10;;;;;;;18.20;7.20;;;;;;;-146.64;100.00;115195.03;5014558;28;20041;-77
2022/06/21 03:28:39;;;;;;;15.10;7.03;;;;;;;-146.64;100.00;115462.00;5029342;28;20029;-77
2022/06/21 03:31:12;;;;;;;16.30;7.38;;;;;;;-146.64;100.00;115195.03;5013728;28;20049;-77
2022/06/21 03:33:41;;;;;;;15.75;6.78;;;;;;;-146.64;100.00;114928.06;5014770;28;20049;-78
2022/06/21 03:36:08;;;;;;;13.35;6.82;;;;;;;-146.64;100.00;114928.06;5012631;28;20038;-78
2022/06/21 03:38:35;;;;;;;14.70;6.95;;;;;;;-146.64;100.00;115195.03;5027218;28;20026;-78
2022/06/21 03:43:51;;;;;;;21.50;7.97;;;;;;;-146.64;100.00;115729.00;5025951;28;19980;-78
2022/06/21 03:46:22;;;;;;;18.38;6.90;;;;;;;-146.64;100.00;115462.00;5025499;28;20054;-78
2022/06/21 03:48:59;;;;;;;13.77;6.20;;;;;;;-146.64;100.00;115462.00;5027694;28;20028;-77
2022/06/21 03:51:45;;;;;;;17.48;6.55;;;;;;;-146.64;100.00;114928.06;5023382;28;20021;-78
2022/06/21 03:54:13;;;;;;;16.27;6.43;;;;;;;-146.64;100.00;115195.03;5012164;28;20054;-78
2022/06/21 03:56:53;;;;;;;16.30;6.57;;;;;;;-146.64;100.00;114928.06;5021902;28;20025;-78
2022/06/21 03:59:24;;;;;;;14.52;6.72;;;;;;;-146.64;100.00;114661.13;5010862;28;20034;-77
2022/06/21 04:02:04;;;;;;;12.75;6.28;;;;;;;-146.64;100.00;114127.28;5026434;28;20014;-78
2022/06/21 04:04:29;;;;;;;16.33;6.82;;;;;;;-146.64;100.00;114127.28;5028173;28;20037;-78
2022/06/21 04:07:18;;;;;;;16.63;7.50;;;;;;;-146.64;100.00;113860.38;5030284;28;20034;-78
2022/06/21 04:10:06;;;;;;;12.23;6.35;;;;;;;-146.64;100.00;112792.97;5016844;28;20014;-78
2022/06/21 04:12:38;;;;;;;13.93;6.30;;;;;;;-146.64;100.00;112792.97;5014095;28;20049;-78
2022/06/21 04:15:09;;;;;;;14.70;6.20;;;;;;;-146.64;100.00;113059.81;5017690;28;20037;-78
2022/06/21 04:17:56;;;;;;;17.65;6.97;;;;;;;-146.64;100.00;113326.63;5020546;28;20069;-78
2022/06/21 04:20:45;;;;;;;18.02;7.22;;;;;;;-146.64;100.00;113860.38;5019296;28;20486;-78
2022/06/21 04:23:28;;;;;;;19.65;6.28;;;;;;;-146.64;100.00;113593.50;5021846;28;20040;-77
2022/06/21 04:26:14;;;;;;;22.08;7.88;;;;;;;-146.64;100.00;114127.28;5024895;28;20072;-77
2022/06/21 04:28:46;;;;;;;19.30;7.68;;;;;;;-146.64;100.00;113326.63;5010387;28;20044;-78
2022/06/21 04:31:15;;;;;;;15.30;7.70;;;;;;;-146.64;100.00;113326.63;5025434;28;20125;-77
2022/06/21 04:33:43;;;;;;;24.83;8.32;;;;;;;-146.64;100.00;113326.63;5027101;28;20010;-78
2022/06/21 04:36:13;;;;;;;17.30;6.72;;;;;;;-146.64;100.00;113593.50;5011061;28;20031;-78
2022/06/21 04:38:42;;;;;;;21.73;7.22;;;;;;;-146.64;100.00;112792.97;4991021;28;20059;-77
2022/06/21 04:41:17;;;;;;;12.82;6.50;;;;;;;-146.64;100.00;112792.97;5004733;28;20026;-78
2022/06/21 04:43:45;;;;;;;12.57;7.15;;;;;;;-146.64;100.00;112526.16;5018260;28;20041;-78
2022/06/21 04:46:22;;;;;;;20.88;8.05;;;;;;;-146.64;100.00;111725.84;5008691;28;20030;-78
2022/06/21 04:49:06;;;;;;;16.10;7.63;;;;;;;-146.64;100.00;110392.34;5019483;28;20065;-78
2022/06/21 04:52:02;;;;;;;19.42;8.35;;;;;;;-146.64;100.00;109325.84;5022005;28;20037;-78
2022/06/21 04:54:30;;;;;;;16.52;6.45;;;;;;;-146.64;100.00;108526.16;4990011;28;20041;-77
2022/06/21 04:57:07;;;;;;;15.50;7.22;;;;;;;-146.64;100.00;107460.16;4995483;28;20068;-77
2022/06/21 04:59:45;;;;;;;;;;;;;;;-146.64;100.00;105329.00;5018388;28;20412;-78
2022/06/21 05:02:54;;;;;;;13.18;7.32;;;;;;;-146.64;100.00;103198.94;4981926;28;19929;-77
2022/06/21 05:05:23;;;;;;;18.27;9.07;;;;;;;-146.64;100.00;101602.13;4996119;28;20062;-77
2022/06/21 05:07:52;;;;;;;29.90;17.08;;;;;;;-146.64;100.00;98144.53;5012224;28;20084;-78
2022/06/21 05:10:22;;;;;;;14.20;7.35;;;;;;;-146.64;100.00;93893.06;4995503;28;20072;-78
2022/06/21 05:12:49;;;;;;;11.70;5.70;;;;;;;-146.64;100.00;85138.56;5013482;28;20021;-77
2022/06/21 05:15:22;;;;;;;8.65;4.60;;;;;;;-146.64;100.00;70854.00;5014270;28;20037;-78
2022/06/21 05:17:52;;;;;;;15.23;4.80;;;;;;;-146.64;100.00;33566.50;4993515;28;20037;-77
2022/06/21 05:20:20;;;;;;;10.90;4.28;;;;;;;-146.64;100.00;35943.94;5005155;28;20069;-77
2022/06/21 05:22:51;;;;;;;15.43;3.95;;;;;;;-146.64;100.00;36839.66;5006609;28;20026;-78
2022/06/21 05:25:27;;;;;;;9.82;4.75;;;;;;;-146.64;100.00;37238.53;5008175;28;20068;-78
2022/06/21 05:28:10;;;;;;;10.30;4.28;;;;;;;-146.64;100.00;37336.72;4993817;28;20030;-79
2022/06/21 05:31:08;;;;;;;7.93;2.95;;;;;;;-146.64;100.00;37547.41;4992511;28;20032;-78
2022/06/21 05:33:35;;;;;;;8.50;2.75;;;;;;;-146.64;100.00;37396.03;5004212;28;20112;-77
2022/06/21 05:36:03;;;;;;;11.32;3.35;;;;;;;-146.64;100.00;37453.31;4998554;28;20030;-78
2022/06/21 05:38:31;;;;;;;10.80;3.83;;;;;;;-146.64;100.00;37430.81;5000912;28;20021;-78
2022/06/21 05:40:58;;;;;;;11.15;3.38;;;;;;;-146.64;100.00;37281.47;4996472;28;20034;-78
2022/06/21 05:43:38;;;;;;;6.93;2.83;;;;;;;-146.64;97.59;37246.72;5012731;28;20125;-78
2022/06/21 05:46:16;;;;;;;9.63;3.33;;;;;;;-146.64;95.38;37187.38;5012866;28;20034;-78
2022/06/21 05:48:41;;;;;;;8.95;3.45;;;;;;;-146.64;91.31;37095.34;4989987;28;20045;-78
2022/06/21 05:51:13;;;;;;;9.45;3.22;;;;;;;-146.64;89.21;37173.06;5007978;28;20136;-78
2022/06/21 05:53:48;;;;;;;8.15;3.17;;;;;;;-146.64;90.45;37164.88;5008301;28;20026;-78
2022/06/21 05:56:17;;;;;;;9.80;3.50;;;;;;;-146.64;92.56;37199.66;4986446;28;20030;-77
2022/06/21 05:58:46;;;;;;;6.45;2.70;;;;;;;-146.64;87.69;37033.97;4986155;28;20409;-78
2022/06/21 06:01:23;;;;;;;5.30;2.53;;;;;;;-146.64;89.89;37058.53;4985020;28;20030;-78
2022/06/21 06:03:51;;;;;;;6.72;2.72;;;;;;;-146.64;88.53;37271.25;5008767;28;20022;-78
2022/06/21 06:06:19;;;;;;;8.27;3.03;;;;;;;-146.64;87.80;37209.88;5012623;28;20065;-79
2022/06/21 06:08:58;;;;;;;6.85;2.55;;;;;;;-146.64;81.83;37011.47;4993082;28;20030;-77
2022/06/21 06:11:26;;;;;;;9.75;2.97;;;;;;;-146.64;83.38;37029.88;4993100;28;20088;-78
2022/06/21 06:13:53;;;;;;;6.05;2.65;;;;;;;-146.64;84.85;37283.53;4997214;28;20045;-78
2022/06/21 06:16:35;;;;;;;6.28;2.60;;;;;;;-146.64;86.23;37179.22;4986763;28;20113;-78
2022/06/21 06:19:05;;;;;;;11.63;2.80;;;;;;;-146.64;85.34;37230.34;5009226;28;20034;-78
2022/06/21 06:21:41;;;;;;;7.82;2.80;;;;;;;-146.64;84.27;37113.75;4995245;28;20042;-77
2022/06/21 06:24:14;;;;;;;7.93;3.05;;;;;;;-146.64;82.67;37097.38;4995218;28;20085;-78
2022/06/21 06:26:40;;;;;;;5.68;2.63;;;;;;;-146.64;82.05;37132.16;5004742;28;20078;-77
2022/06/21 06:29:32;;;;;;;7.70;3.08;;;;;;;-146.64;82.20;37179.22;5007415;28;20033;-77
2022/06/21 06:32:03;;;;;;;9.73;3.20;;;;;;;-146.64;84.75;37238.53;4993060;28;20081;-78
2022/06/21 06:34:36;;;;;;;10.05;2.75;;;;;;;-146.64;80.97;37271.25;5011353;28;20041;-78
2022/06/21 06:37:07;;;;;;;7.97;2.67;;;;;;;-146.64;77.61;37195.56;5005747;28;20025;-77
2022/06/21 06:39:35;;;;;;;7.55;2.33;;;;;;;-146.64;78.82;37187.38;5011566;28;20060;-78
2022/06/21 06:42:07;;;;;;;5.93;2.40;;;;;;;-146.64;78.70;37029.88;5012175;28;20061;-78
2022/06/21 06:44:40;;;;;;;9.40;2.60;;;;;;;-146.64;75.86;36884.66;5012117;28;20030;-78
2022/06/21 06:47:13;;;;;;;6.97;2.60;;;;;;;-146.64;77.15;36952.16;5012631;28;20037;-78
2022/06/21 06:49:42;;;;;;;12.38;6.18;;;;;;;-146.64;75.57;36890.81;5000093;28;20053;-78
2022/06/21 06:52:31;;;;;;;9.07;3.55;;;;;;;-146.64;73.24;36723.09;5008460;28;20545;-78
2022/06/21 06:55:19;;;;;;;17.67;3.22;;;;;;;-146.64;71.84;36874.44;4987038;28;20022;-78
2022/06/21 06:58:11;;;;;;;8.73;2.72;;;;;;;-146.64;71.74;36661.72;5010200;28;20038;-76
2022/06/21 07:00:41;;;;;;;5.32;2.33;;;;;;;-146.64;68.81;36700.59;5008208;28;20087;-76
2022/06/21 07:03:12;;;;;;;5.10;2.42;;;;;;;-146.64;72.36;36898.97;5009338;28;20084;-77
2022/06/21 07:05:52;;;;;;;7.05;2.40;;;;;;;-146.64;71.99;37019.66;4998086;28;20026;-76
2022/06/21 07:08:34;;;;;;;10.35;2.70;;;;;;;-146.64;72.06;37003.28;5008634;28;20034;-75
2022/06/21 07:11:04;;;;;;;12.60;2.53;;;;;;;-146.64;73.61;37029.88;5004376;28;20038;-75
2022/06/21 07:13:31;;;;;;;7.32;2.42;;;;;;;-146.64;71.01;37038.06;5006153;28;20508;-75
2022/06/21 07:16:05;;;;;;;6.53;2.20;;;;;;;-146.64;71.92;37017.63;5010097;28;20062;-75
2022/06/21 07:18:34;;;;;;;11.93;2.80;;;;;;;-146.64;72.09;36890.81;5007868;28;20492;-76
2022/06/21 07:20:59;;;;;;;6.18;2.08;;;;;;;-146.64;71.07;36964.44;4991750;28;20057;-75
2022/06/21 07:23:27;;;;;;;8.05;2.05;;;;;;;-146.64;69.93;36878.53;4982249;28;20072;-76
2022/06/21 07:26:05;;;;;;;11.90;2.08;;;;;;;-146.64;69.57;36886.72;5006221;28;20580;-75
2022/06/21 07:28:41;;;;;;;8.30;2.10;;;;;;;-146.64;69.51;36686.28;5018060;28;20076;-75
2022/06/21 07:31:13;;;;;;;9.93;2.40;;;;;;;-146.64;67.83;37099.44;5009902;28;20460;-75
2022/06/21 07:34:03;;;;;;;10.23;2.58;;;;;;;-146.64;67.05;36702.63;4999023;28;20105;-75
2022/06/21 07:36:43;;;;;;;7.78;2.70;;;;;;;-146.64;70.86;36950.13;5009931;28;20135;-76
2022/06/21 07:39:36;;;;;;;9.88;2.85;;;;;;;-146.64;70.69;36821.25;4998336;28;20489;-74
2022/06/21 07:42:07;;;;;;;7.28;2.40;;;;;;;-146.64;67.68;36892.84;5003357;28;20115;-74
2022/06/21 07:44:39;;;;;;;6.65;2.30;;;;;;;-146.64;71.15;37132.16;5001071;28;20049;-75
2022/06/21 07:47:10;;;;;;;7.07;1.67;;;;;;;-146.64;74.92;37148.53;4995213;28;20030;-75
2022/06/21 07:49:38;;;;;;;5.75;1.58;;;;;;;-146.64;74.31;37234.44;5002120;28;20026;-75
2022/06/21 07:52:14;;;;;;;3.70;1.70;;;;;;;-146.64;75.52;37291.72;4990969;28;20480;-75
2022/06/21 07:54:55;;;;;;;7.68;2.13;;;;;;;-146.64;73.66;37312.16;5008309;28;20026;-75
2022/06/21 07:57:25;;;;;;;10.52;2.17;;;;;;;-146.64;74.19;37216.03;4985788;28;20041;-75
2022/06/21 07:59:54;;;;;;;4.93;2.22;;;;;;;-146.64;73.87;37285.56;5005604;28;20112;-77
2022/06/21 08:08:15;;;;;;;9.30;2.08;;;;;;;-146.64;73.68;37283.53;5011013;28;20076;-75
2022/06/21 08:10:58;;;;;;;6.75;1.80;;;;;;;-146.64;74.12;37070.78;5004570;28;20037;-75
2022/06/21 08:13:24;;;;;;;6.80;2.15;;;;;;;-146.64;71.96;37150.56;5000366;28;20053;-75
2022/06/21 08:15:55;;;;;;;9.63;2.87;;;;;;;-146.64;73.88;37191.47;4988359;28;20054;-74
2022/06/21 08:18:29;;;;;;;9.85;3.20;;;;;;;-146.64;70.07;37287.63;4984830;28;20081;-74
2022/06/21 08:21:02;;;;;;;6.72;2.47;;;;;;;-146.64;70.75;37265.13;5007225;28;20069;-74
2022/06/21 08:24:02;;;;;;;8.25;2.00;;;;;;;-146.64;72.65;37522.88;5010428;28;20041;-74
2022/06/21 08:26:39;;;;;;;8.60;2.55;;;;;;;-146.64;74.53;37488.09;4959648;28;20042;-75
2022/06/21 08:29:10;;;;;;;5.97;1.92;;;;;;;-146.64;74.59;37353.06;4994125;28;20121;-75
2022/06/21 08:31:42;;;;;;;6.15;2.15;;;;;;;-146.64;71.52;37256.94;4999756;28;20174;-75
2022/06/21 08:34:12;;;;;;;5.57;2.00;;;;;;;-146.64;72.01;37195.56;4985285;28;20348;-75
2022/06/21 08:36:44;;;;;;;7.07;1.85;;;;;;;-146.64;73.25;37494.22;5003656;28;20029;-74
2022/06/21 08:39:18;;;;;;;10.27;2.50;;;;;;;-146.64;75.39;37420.59;4997079;28;20045;-74
2022/06/21 08:41:56;;;;;;;9.50;2.30;;;;;;;-146.64;74.63;37545.38;4991619;28;20041;-75
2022/06/21 08:44:40;;;;;;;9.07;2.35;;;;;;;-146.64;73.60;37402.16;5010025;28;20045;-75
2022/06/21 08:47:30;;;;;;;5.07;1.85;;;;;;;-146.64;69.64;37410.34;5015354;28;20026;-73
2022/06/21 08:50:22;;;;;;;6.28;1.73;;;;;;;-146.64;70.94;37436.94;5015528;28;20030;-74
2022/06/21 08:53:03;;;;;;;9.73;2.67;;;;;;;-146.64;70.90;37508.53;5002477;28;20534;-75
2022/06/21 08:55:46;;;;;;;6.03;2.20;;;;;;;-146.64;72.71;37518.78;4999188;28;20030;-74
2022/06/21 08:58:22;;;;;;;11.30;2.85;;;;;;;-146.64;72.41;37574.00;5008716;28;20029;-74
2022/06/21 09:00:53;;;;;;;6.20;2.38;;;;;;;-146.64;74.99;37639.47;4992363;28;20484;-74
2022/06/21 09:03:46;;;;;;;13.20;2.63;;;;;;;-146.64;76.88;37529.00;4991910;28;20034;-75
2022/06/21 09:06:38;;;;;;;6.70;2.00;;;;;;;-146.64;75.92;37537.19;4995637;28;20034;-75
2022/06/21 09:09:15;;;;;;;9.02;2.22;;;;;;;-146.64;73.16;37410.34;4992272;28;20033;-74
2022/06/21 09:12:00;;;;;;;6.15;1.77;;;;;;;-146.64;72.36;37529.00;5016791;28;20084;-74
2022/06/21 09:14:54;;;;;;;6.65;1.80;;;;;;;-146.64;71.46;37569.91;4998985;28;20037;-74
2022/06/21 09:17:27;;;;;;;7.10;1.90;;;;;;;-146.64;72.30;37516.72;5018533;28;20128;-75
2022/06/21 09:20:02;;;;;;;6.50;1.80;;;;;;;-146.64;72.91;37439.00;5004738;28;20040;-74
2022/06/21 09:22:40;;;;;;;7.20;2.03;;;;;;;-146.64;71.27;37328.53;5002961;28;20026;-74
2022/06/21 09:25:28;;;;;;;3.63;1.52;;;;;;;-146.64;71.47;37348.97;4993150;28;20041;-74
2022/06/21 09:27:55;;;;;;;;;;;;;;;-146.64;70.72;37320.34;4995756;28;20077;-75
2022/06/21 09:30:32;;;;;;;6.18;2.10;;;;;;;-146.64;71.38;37285.56;4988875;28;19996;-75
2022/06/21 09:32:59;;;;;;;;;;;;;;;-146.64;70.11;37332.63;5004405;28;20038;-75
2022/06/21 09:35:43;;;;;;;5.80;1.60;;;;;;;-146.64;70.95;37271.25;5005533;28;20348;-75
2022/06/21 09:38:22;;;;;;;6.28;2.15;;;;;;;-146.64;71.54;37322.41;5010138;28;20083;-76
2022/06/21 09:41:03;;;;;;;4.18;2.40;;;;;;;-146.64;70.07;37269.22;4991651;28;20037;-77
2022/06/21 09:43:35;;;;;;;9.15;2.30;;;;;;;-146.64;70.76;37107.63;5009569;28;20030;-75
2022/06/21 09:46:31;;;;;;;8.57;2.05;;;;;;;-146.64;68.78;37201.72;5010701;28;20033;-77
2022/06/21 09:49:11;;;;;;;5.60;2.20;;;;;;;-146.64;68.31;37348.97;5010974;28;20034;-76
2022/06/21 09:52:09;;;;;;;5.85;1.83;;;;;;;-146.64;66.54;37105.56;5008398;28;20052;-75
2022/06/21 09:54:36;;;;;;;6.35;1.73;;;;;;;-146.64;63.00;36913.31;5011162;28;20030;-75
2022/06/21 09:57:26;;;;;;;4.65;1.75;;;;;;;-146.64;60.19;36833.53;5006658;28;20034;-76
2022/06/21 10:00:12;;;;;;;6.88;1.77;;;;;;;-146.64;61.61;37046.25;5009582;28;20037;-75
2022/06/21 10:02:57;;;;;;;7.07;2.40;;;;;;;-146.64;61.84;37048.28;5002078;28;20078;-76
2022/06/21 10:05:51;;;;;;;7.28;1.48;;;;;;;-146.64;61.08;37001.25;5007314;28;20080;-75
2022/06/21 10:08:26;;;;;;;7.35;1.80;;;;;;;-146.64;60.55;36935.81;4993141;28;20547;-76
2022/06/21 10:11:03;;;;;;;5.55;1.80;;;;;;;-146.64;59.55;36903.06;4994085;28;20229;-77
2022/06/21 10:13:56;;;;;;;10.32;2.40;;;;;;;-146.64;63.08;36952.16;4993791;28;20042;-75
2022/06/21 10:16:59;;;;;;;7.15;3.10;;;;;;;-146.64;64.14;37076.94;5003330;28;20121;-76
2022/06/21 10:19:46;;;;;;;7.68;2.85;;;;;;;-146.64;64.08;37091.25;5027430;28;20025;-76
2022/06/21 10:22:52;;;;;;;9.45;2.70;;;;;;;-146.64;62.13;37150.56;5009896;28;20048;-76
2022/06/21 10:25:36;;;;;;;8.77;2.28;;;;;;;-146.64;63.19;37189.44;4976284;28;20037;-76
2022/06/21 10:28:21;;;;;;;5.18;1.95;;;;;;;-146.64;62.99;37185.34;5002915;28;20097;-75
2022/06/21 10:30:53;;;;;;;5.22;2.15;;;;;;;-146.64;63.29;37271.25;5012104;28;20026;-75
2022/06/21 10:33:39;;;;;;;3.40;1.92;;;;;;;-146.64;63.19;37267.16;5005122;28;20113;-76
2022/06/21 10:36:05;;;;;;;5.57;1.90;;;;;;;-146.64;65.00;37209.88;5011598;28;20033;-75
2022/06/21 10:38:55;;;;;;;7.33;3.23;;;;;;;-146.64;64.65;37287.63;4995114;28;20037;-77
2022/06/21 10:41:21;;;;;;;6.32;2.80;;;;;;;-146.64;64.57;37203.75;4992415;28;20030;-77
2022/06/21 10:44:06;;;;;;;5.73;2.73;;;;;;;-146.64;61.90;37363.31;4993589;28;20468;-77
2022/06/21 10:46:39;;;;;;;6.13;2.72;;;;;;;-146.64;62.37;37299.88;5008451;28;20368;-77
2022/06/21 10:49:29;;;;;;;5.28;2.53;;;;;;;-146.64;60.47;37289.66;5011553;28;20548;-76
2022/06/21 10:52:29;;;;;;;7.53;2.35;;;;;;;-146.64;61.57;37201.72;5011057;28;20068;-76
2022/06/21 10:55:06;;;;;;;6.78;2.15;;;;;;;-146.64;62.99;37340.81;5012146;28;20501;-77
2022/06/21 10:57:34;;;;;;;8.45;2.58;;;;;;;-146.64;60.99;37207.84;5011408;28;20041;-77
2022/06/21 11:03:36;;;;;;;8.10;3.20;;;;;;;-146.64;61.06;37015.56;5011883;28;20045;-77
2022/06/21 11:06:27;;;;;;;7.85;2.78;;;;;;;-146.64;61.79;37240.56;5010521;28;20050;-77
2022/06/21 11:09:08;;;;;;;8.02;3.25;;;;;;;-146.64;63.21;37224.22;5009306;28;20465;-77
2022/06/21 11:11:46;;;;;;;8.35;2.90;;;;;;;-146.64;61.64;37271.25;4994795;28;20428;-77
2022/06/21 11:14:29;;;;;;;6.05;2.65;;;;;;;-146.64;62.44;37185.34;5011251;28;20104;-76
2022/06/21 11:17:10;;;;;;;8.70;2.60;;;;;;;-146.64;63.51;37164.88;4995007;28;20377;-76
2022/06/21 11:19:51;;;;;;;6.20;2.28;;;;;;;-146.64;63.29;37197.63;5010656;28;20037;-77
2022/06/21 11:22:26;;;;;;;4.43;2.10;;;;;;;-146.64;62.61;37132.16;5011365;28;20037;-76
2022/06/21 11:25:16;;;;;;;5.97;2.60;;;;;;;-146.64;61.96;37146.47;5010810;28;20041;-76
2022/06/21 11:27:57;;;;;;;6.32;2.55;;;;;;;-146.64;64.13;37308.06;4993084;28;20038;-76
2022/06/21 11:30:48;;;;;;;7.35;3.15;;;;;;;-146.64;65.18;37279.44;4991478;28;20559;-77
2022/06/21 11:33:25;;;;;;;8.35;3.10;;;;;;;-146.64;63.19;37193.53;5008295;28;20117;-76
2022/06/21 11:36:11;;;;;;;7.80;3.22;;;;;;;-146.64;63.92;37168.97;4999963;28;20132;-76
2022/06/21 11:38:51;;;;;;;12.15;3.20;;;;;;;-146.64;65.96;37213.97;5008427;28;20022;-76
2022/06/21 11:42:06;;;;;;;6.75;3.00;;;;;;;-146.64;64.32;37173.06;5009048;28;20453;-76
2022/06/21 11:44:37;;;;;;;9.88;3.22;;;;;;;-146.64;63.95;37181.25;5031192;28;20095;-77
2022/06/21 11:47:20;;;;;;;4.90;2.67;;;;;;;-146.64;64.63;37250.81;5031907;28;20062;-76
2022/06/21 11:49:55;;;;;;;6.97;2.67;;;;;;;-146.64;64.19;37152.63;4990914;28;20041;-76
2022/06/21 11:52:56;;;;;;;5.28;2.15;;;;;;;-146.64;63.26;37201.72;4984671;28;20034;-75
2022/06/21 11:55:43;;;;;;;7.35;5.15;;;;;;;-146.64;61.37;37181.25;5011114;28;20082;-77